CWI785 EDDV-LHBP
Flight info
| Callsign | CWI785 |
|---|---|
| Flight time | N/A |
| Altitude | 35000 |
| Route | POVEL Z94 GALMA T703 TIPAM Z650 VEMUT BUDEX TOVKA ANEXA |
| Aircraft | A321/M-SDE3FGHIRWY/LB1 |
Departure
| Time | 2026-05-03 21:47 |
|---|---|
| Airport | Hannover Airport (EDDV) |
Arrival
| Time | N/A |
|---|---|
| Airport | Budapest Liszt Ferenc International Airport (LHBP) |
| Time | Latitude | Longitude | Altitude | Speed | Heading |
|---|---|---|---|---|---|
| 2026-05-03 21:17 | 52.45710 | 9.68893 | 180 ft | 0 kts | 182° |
| 2026-05-03 21:35 | 52.45718 | 9.68894 | 180 ft | 4 kts | 167° |
| 2026-05-03 21:36 | 52.45725 | 9.68884 | 180 ft | 4 kts | 83° |
| 2026-05-03 21:36 | 52.45725 | 9.68845 | 179 ft | 2 kts | 110° |
| 2026-05-03 21:36 | 52.45727 | 9.68837 | 179 ft | 0 kts | 110° |
| 2026-05-03 21:38 | 52.45726 | 9.68846 | 179 ft | 5 kts | 104° |
| 2026-05-03 21:38 | 52.45753 | 9.68903 | 179 ft | 9 kts | 48° |
| 2026-05-03 21:39 | 52.45829 | 9.69004 | 178 ft | 15 kts | 5° |
| 2026-05-03 21:39 | 52.45920 | 9.68924 | 177 ft | 14 kts | 323° |
| 2026-05-03 21:39 | 52.45998 | 9.68828 | 177 ft | 12 kts | 322° |
| 2026-05-03 21:39 | 52.46070 | 9.68738 | 178 ft | 13 kts | 322° |
| 2026-05-03 21:40 | 52.46145 | 9.68641 | 180 ft | 14 kts | 322° |
| 2026-05-03 21:40 | 52.46188 | 9.68615 | 180 ft | 0 kts | 15° |
| 2026-05-03 21:40 | 52.46191 | 9.68617 | 180 ft | 0 kts | 15° |
| 2026-05-03 21:40 | 52.46192 | 9.68617 | 180 ft | 0 kts | 16° |
| 2026-05-03 21:41 | 52.46206 | 9.68625 | 180 ft | 6 kts | 21° |
| 2026-05-03 21:41 | 52.46237 | 9.68729 | 181 ft | 13 kts | 65° |
| 2026-05-03 21:41 | 52.46264 | 9.68833 | 181 ft | 9 kts | 68° |
| 2026-05-03 21:42 | 52.46285 | 9.68918 | 181 ft | 7 kts | 68° |
| 2026-05-03 21:42 | 52.46301 | 9.68983 | 182 ft | 7 kts | 68° |
| 2026-05-03 21:42 | 52.46330 | 9.69099 | 183 ft | 15 kts | 68° |
| 2026-05-03 21:42 | 52.46375 | 9.69286 | 182 ft | 20 kts | 69° |
| 2026-05-03 21:43 | 52.46429 | 9.69515 | 181 ft | 24 kts | 68° |
| 2026-05-03 21:43 | 52.46479 | 9.69723 | 179 ft | 18 kts | 68° |
| 2026-05-03 21:43 | 52.46520 | 9.69888 | 175 ft | 15 kts | 65° |
| 2026-05-03 21:43 | 52.46597 | 9.69947 | 176 ft | 8 kts | 5° |
| 2026-05-03 21:44 | 52.46599 | 9.69947 | 176 ft | 0 kts | 5° |
| 2026-05-03 21:44 | 52.46614 | 9.69949 | 177 ft | 7 kts | 5° |
| 2026-05-03 21:44 | 52.46691 | 9.69904 | 179 ft | 19 kts | 298° |
| 2026-05-03 21:45 | 52.46700 | 9.69682 | 177 ft | 0 kts | 275° |
| 2026-05-03 21:46 | 52.46708 | 9.69521 | 179 ft | 43 kts | 273° |
| 2026-05-03 21:46 | 52.46732 | 9.68645 | 180 ft | 107 kts | 272° |
| 2026-05-03 21:46 | 52.46771 | 9.67141 | 182 ft | 155 kts | 271° |
| 2026-05-03 21:46 | 52.46807 | 9.65285 | 601 ft | 161 kts | 271° |
| 2026-05-03 21:47 | 52.46847 | 9.63463 | 1290 ft | 159 kts | 268° |
| 2026-05-03 21:47 | 52.46852 | 9.61680 | 1949 ft | 159 kts | 267° |
| 2026-05-03 21:47 | 52.46853 | 9.59786 | 2253 ft | 176 kts | 268° |
| 2026-05-03 21:47 | 52.46854 | 9.59015 | 2340 ft | 184 kts | 268° |
| 2026-05-03 21:48 | 52.46853 | 9.58545 | 2455 ft | 181 kts | 268° |
| 2026-05-03 21:49 | 52.46836 | 9.56542 | 3164 ft | 176 kts | 262° |
| 2026-05-03 21:49 | 52.46789 | 9.56088 | 3229 ft | 179 kts | 256° |
| 2026-05-03 21:49 | 52.46754 | 9.55870 | 3250 ft | 181 kts | 252° |
| 2026-05-03 21:49 | 52.46082 | 9.54041 | 3547 ft | 197 kts | 226° |
| 2026-05-03 21:50 | 52.44908 | 9.52773 | 4063 ft | 206 kts | 213° |
| 2026-05-03 21:50 | 52.44791 | 9.52664 | 4134 ft | 206 kts | 213° |
| 2026-05-03 21:50 | 52.44254 | 9.52169 | 4330 ft | 214 kts | 213° |
| 2026-05-03 21:51 | 52.43753 | 9.51609 | 4731 ft | 201 kts | 219° |
| 2026-05-03 21:51 | 52.42531 | 9.50217 | 5240 ft | 217 kts | 213° |
| 2026-05-03 21:51 | 52.41244 | 9.49033 | 6198 ft | 210 kts | 211° |
| 2026-05-03 21:52 | 52.40673 | 9.48526 | 6519 ft | 210 kts | 211° |
| 2026-05-03 21:52 | 52.40120 | 9.48038 | 6819 ft | 211 kts | 211° |
| 2026-05-03 21:52 | 52.38819 | 9.46883 | 7481 ft | 214 kts | 211° |
| 2026-05-03 21:52 | 52.37438 | 9.45889 | 8114 ft | 221 kts | 193° |
| 2026-05-03 21:53 | 52.35894 | 9.46129 | 8742 ft | 234 kts | 160° |
| 2026-05-03 21:53 | 52.34559 | 9.47892 | 9074 ft | 265 kts | 126° |
| 2026-05-03 21:53 | 52.33694 | 9.50723 | 9309 ft | 291 kts | 116° |
| 2026-05-03 21:53 | 52.32956 | 9.53877 | 9895 ft | 301 kts | 112° |
| 2026-05-03 21:54 | 52.32259 | 9.57140 | 10511 ft | 307 kts | 112° |
| 2026-05-03 21:54 | 52.31538 | 9.60539 | 10784 ft | 327 kts | 112° |
| 2026-05-03 21:54 | 52.30747 | 9.64171 | 10938 ft | 350 kts | 113° |
| 2026-05-03 21:54 | 52.29882 | 9.68025 | 11059 ft | 372 kts | 113° |
| 2026-05-03 21:55 | 52.28944 | 9.72086 | 11166 ft | 392 kts | 114° |
| 2026-05-03 21:55 | 52.27949 | 9.76326 | 11529 ft | 403 kts | 114° |
| 2026-05-03 21:55 | 52.26949 | 9.80552 | 12086 ft | 407 kts | 114° |
| 2026-05-03 21:55 | 52.25921 | 9.84884 | 12685 ft | 410 kts | 114° |
| 2026-05-03 21:56 | 52.24974 | 9.89301 | 13263 ft | 416 kts | 107° |
| 2026-05-03 21:56 | 52.24866 | 9.90030 | 13360 ft | 417 kts | 105° |
| 2026-05-03 21:56 | 52.24766 | 9.90774 | 13429 ft | 419 kts | 105° |
| 2026-05-03 21:56 | 52.24167 | 9.95445 | 14002 ft | 421 kts | 104° |
| 2026-05-03 21:57 | 52.23580 | 10.00141 | 14519 ft | 424 kts | 104° |
| 2026-05-03 21:57 | 52.22999 | 10.04802 | 15001 ft | 427 kts | 104° |
| 2026-05-03 21:57 | 52.22399 | 10.09587 | 15491 ft | 431 kts | 105° |
| 2026-05-03 21:57 | 52.21790 | 10.14406 | 15975 ft | 435 kts | 105° |
| 2026-05-03 21:58 | 52.21173 | 10.19273 | 16452 ft | 438 kts | 105° |
| 2026-05-03 21:58 | 52.20546 | 10.24183 | 16916 ft | 442 kts | 105° |
| 2026-05-03 21:58 | 52.19910 | 10.29107 | 17383 ft | 446 kts | 105° |
| 2026-05-03 21:58 | 52.19271 | 10.34013 | 17839 ft | 449 kts | 105° |
| 2026-05-03 21:59 | 52.18616 | 10.39016 | 18285 ft | 453 kts | 105° |
| 2026-05-03 21:59 | 52.17955 | 10.44046 | 18741 ft | 454 kts | 105° |
| 2026-05-03 21:59 | 52.17295 | 10.49084 | 19214 ft | 456 kts | 105° |
| 2026-05-03 21:59 | 52.16634 | 10.54156 | 19659 ft | 458 kts | 105° |
| 2026-05-03 22:00 | 52.15966 | 10.59254 | 20087 ft | 460 kts | 105° |
| 2026-05-03 22:00 | 52.15291 | 10.64354 | 20507 ft | 462 kts | 105° |
| 2026-05-03 22:00 | 52.14606 | 10.69484 | 20926 ft | 464 kts | 107° |
| 2026-05-03 22:00 | 52.13611 | 10.74459 | 21330 ft | 461 kts | 117° |
| 2026-05-03 22:01 | 52.12105 | 10.79068 | 21727 ft | 458 kts | 127° |
| 2026-05-03 22:01 | 52.10160 | 10.83143 | 22142 ft | 454 kts | 137° |
| 2026-05-03 22:01 | 52.07844 | 10.86601 | 22508 ft | 451 kts | 147° |
| 2026-05-03 22:01 | 52.07450 | 10.87086 | 22547 ft | 451 kts | 148° |
| 2026-05-03 22:02 | 52.04784 | 10.89760 | 22870 ft | 450 kts | 156° |
| 2026-05-03 22:02 | 52.02015 | 10.92146 | 23223 ft | 453 kts | 156° |
| 2026-05-03 22:02 | 51.99257 | 10.94524 | 23570 ft | 455 kts | 156° |
| 2026-05-03 22:02 | 51.96418 | 10.96974 | 23897 ft | 457 kts | 156° |
| 2026-05-03 22:03 | 51.93606 | 10.99404 | 24241 ft | 459 kts | 156° |
| 2026-05-03 22:03 | 51.90774 | 11.01843 | 24592 ft | 461 kts | 156° |
| 2026-05-03 22:03 | 51.88955 | 11.03405 | 24808 ft | 462 kts | 156° |
| 2026-05-03 22:05 | 51.86832 | 11.05202 | 25048 ft | 463 kts | 156° |
| 2026-05-03 22:05 | 51.85558 | 11.06286 | 25196 ft | 463 kts | 156° |
| 2026-05-03 22:05 | 51.83259 | 11.08251 | 25461 ft | 464 kts | 156° |
| 2026-05-03 22:05 | 51.80417 | 11.10692 | 25900 ft | 462 kts | 156° |
| 2026-05-03 22:06 | 51.77620 | 11.13098 | 26339 ft | 460 kts | 156° |
| 2026-05-03 22:06 | 51.74795 | 11.15524 | 26766 ft | 458 kts | 156° |
| 2026-05-03 22:06 | 51.71979 | 11.17933 | 27176 ft | 457 kts | 156° |
| 2026-05-03 22:06 | 51.69171 | 11.20326 | 27572 ft | 456 kts | 156° |
| 2026-05-03 22:07 | 51.68169 | 11.21178 | 27705 ft | 456 kts | 156° |
| 2026-05-03 22:07 | 51.65631 | 11.23328 | 28050 ft | 456 kts | 156° |
| 2026-05-03 22:07 | 51.64680 | 11.24131 | 28198 ft | 455 kts | 156° |
| 2026-05-03 22:07 | 51.63660 | 11.24994 | 28340 ft | 455 kts | 156° |
| 2026-05-03 22:08 | 51.61326 | 11.26972 | 28681 ft | 454 kts | 156° |
| 2026-05-03 22:08 | 51.59355 | 11.28642 | 28977 ft | 453 kts | 156° |
| 2026-05-03 22:09 | 51.58182 | 11.29635 | 29171 ft | 452 kts | 156° |
| 2026-05-03 22:09 | 51.57980 | 11.29806 | 29203 ft | 452 kts | 156° |
| 2026-05-03 22:09 | 51.56027 | 11.31461 | 29508 ft | 451 kts | 156° |